This is the latest recevied weather packets stored in our database for station/object KE9ADS. If no packets are shown the sender has not sent any weather packets the latest 1 day(s).
| Time | Temp. | Humidity | Pressure | Rain* | Wind** | Luminosity | Snow |
|---|---|---|---|---|---|---|---|
| 1778000995 | 12.22° C | 40% | 1014 hPa | 0 mm | 0.89 m/s, 296° | 228 W/m² | - |
| 1778000393 | 12.22° C | 40% | 1014.1 hPa | 0 mm | 0.89 m/s, 269° | 240 W/m² | - |
| 1777999791 | 12.22° C | 38% | 1014 hPa | 0 mm | 0.45 m/s, 280° | 271 W/m² | - |
| 1777999186 | 12.22° C | 40% | 1014.1 hPa | 0 mm | 0.89 m/s, 326° | 236 W/m² | - |
| 1777998583 | 11.67° C | 40% | 1013.7 hPa | 0 mm | 0.89 m/s, 252° | 190 W/m² | - |
| 1777997981 | 11.67° C | 40% | 1013.9 hPa | 0 mm | 1.34 m/s, 334° | 228 W/m² | - |
| 1777997382 | 11.67° C | 41% | 1013.8 hPa | 0 mm | 0.89 m/s, 292° | 195 W/m² | - |
| 1777996782 | 11.67° C | 38% | 1013.9 hPa | 0 mm | 0.45 m/s, 201° | 189 W/m² | - |
| 1777996181 | 11.67° C | 38% | 1013.4 hPa | 0 mm | 0.89 m/s, 211° | 209 W/m² | - |
| 1777995579 | 11.67° C | 40% | 1013.4 hPa | 0 mm | 0.45 m/s, 209° | 211 W/m² | - |
| 1777994974 | 12.22° C | 41% | 1013.4 hPa | 0 mm | 0.45 m/s, 236° | 260 W/m² | - |
| 1777994371 | 13.33° C | 41% | 1013.5 hPa | 0 mm | 0 m/s | 260 W/m² | - |
| 1777993771 | 12.22° C | 41% | 1013.1 hPa | 0 mm | 0.89 m/s, 194° | 478 W/m² | - |
| 1777993167 | 12.22° C | 41% | 1013.1 hPa | 0 mm | 0 m/s | 254 W/m² | - |
| 1777992563 | 12.22° C | 39% | 1013.1 hPa | 0 mm | 0.89 m/s, 337° | 325 W/m² | - |
| 1777991958 | 12.78° C | 39% | 1012.8 hPa | 0 mm | 0.45 m/s, 250° | 283 W/m² | - |
| 1777991358 | 11.67° C | 43% | 1012.7 hPa | 0 mm | 0.89 m/s, 276° | 317 W/m² | - |
| 1777990759 | 11.67° C | 42% | 1012.8 hPa | 0 mm | 0.45 m/s, 313° | 190 W/m² | - |
| 1777990159 | 11.67° C | 46% | 1012.7 hPa | 0 mm | 0.45 m/s, 308° | 371 W/m² | - |
| 1777989558 | 12.22° C | 51% | 1012.5 hPa | 0 mm | 0 m/s | 154 W/m² | - |
| 1777988956 | 12.22° C | 53% | 1012.6 hPa | 0 mm | 0 m/s | 324 W/m² | - |
| 1777988355 | 11.67° C | 62% | 1012.8 hPa | 0 mm | 0 m/s | 237 W/m² | - |
| 1777987754 | 8.89° C | 67% | 1013 hPa | 0 mm | 0 m/s | 338 W/m² | - |
| 1777987154 | 8.89° C | 69% | 1013.4 hPa | 0 mm | 0.45 m/s, 236° | 111 W/m² | - |
| 1777986554 | 8.33° C | 71% | 1013.5 hPa | 0 mm | 0.89 m/s, 245° | 124 W/m² | - |
* Rain latest hour (hover to see other rain measurements)
** Current wind speed in m/s (hover to see current wind gust speed)